createdAt,value
2023-04-16T00:00:48.421Z,38.63
2023-04-16T00:05:55.701Z,39.50
2023-04-16T00:11:02.344Z,41.17
2023-04-16T00:16:04.284Z,34.00
2023-04-16T00:21:11.300Z,38.73
2023-04-16T00:26:13.010Z,41.90
2023-04-16T00:31:26.899Z,43.77
2023-04-16T00:36:29.020Z,43.70
2023-04-16T00:41:30.939Z,41.77
2023-04-16T00:46:38.334Z,46.93
2023-04-16T00:51:42.448Z,46.67
2023-04-16T00:56:49.806Z,45.47
2023-04-16T01:01:51.704Z,42.93
2023-04-16T01:07:01.014Z,44.10
2023-04-16T01:12:05.295Z,45.23
2023-04-16T01:17:07.005Z,50.50
2023-04-16T01:22:08.714Z,47.30
2023-04-16T01:27:10.540Z,45.50
2023-04-16T01:32:12.321Z,39.10
2023-04-16T01:37:17.720Z,42.00
2023-04-16T01:42:21.068Z,38.63
2023-04-16T01:47:27.780Z,39.07
2023-04-16T01:52:29.675Z,41.37
2023-04-16T01:57:31.842Z,42.57
2023-04-16T02:02:36.373Z,38.87
2023-04-16T02:07:40.692Z,36.43
2023-04-16T02:12:44.752Z,38.80
2023-04-16T02:17:56.930Z,41.17
2023-04-16T02:23:00.454Z,39.70
2023-04-16T02:28:05.277Z,34.40
2023-04-16T02:33:14.460Z,36.07
2023-04-16T02:38:28.414Z,35.03
2023-04-16T02:43:30.243Z,34.33
2023-04-16T02:48:36.711Z,33.70
2023-04-16T02:53:40.584Z,34.40
2023-04-16T02:58:42.382Z,38.87
2023-04-16T03:03:46.449Z,32.73
2023-04-16T03:08:48.319Z,37.30
2023-04-16T03:13:52.490Z,36.13
2023-04-16T03:18:56.708Z,33.83
2023-04-16T03:23:58.401Z,37.07
2023-04-16T03:29:00.167Z,38.37
2023-04-16T03:34:06.186Z,31.07
2023-04-16T03:39:08.607Z,36.83
2023-04-16T03:44:13.944Z,36.30
2023-04-16T03:49:21.087Z,39.80
2023-04-16T03:54:25.472Z,36.63
2023-04-16T03:59:36.009Z,34.07
2023-04-16T04:04:40.251Z,36.67
2023-04-16T04:09:51.240Z,34.50
2023-04-16T04:14:53.001Z,38.60
2023-04-16T04:20:01.660Z,34.20
2023-04-16T04:25:12.135Z,34.70
2023-04-16T04:30:13.908Z,38.37
2023-04-16T04:35:16.636Z,37.00
2023-04-16T04:40:21.052Z,36.17
2023-04-16T04:45:30.371Z,40.50
2023-04-16T04:50:36.790Z,39.00
2023-04-16T04:55:41.030Z,40.47
2023-04-16T05:00:48.614Z,42.30
2023-04-16T05:05:50.490Z,38.27
2023-04-16T05:10:57.208Z,45.63
2023-04-16T05:15:58.892Z,36.37
2023-04-16T05:21:03.817Z,36.33
2023-04-16T05:26:08.115Z,35.87
2023-04-16T05:31:14.274Z,32.53
2023-04-16T05:36:16.148Z,35.97
2023-04-16T05:41:20.398Z,31.27
2023-04-16T05:46:22.269Z,28.33
2023-04-16T05:51:27.638Z,27.50
2023-04-16T05:56:29.334Z,29.80
2023-04-16T06:01:32.795Z,26.83
2023-04-16T06:06:37.456Z,28.73
2023-04-16T06:11:39.293Z,26.53
2023-04-16T06:16:41.057Z,28.43
2023-04-16T06:21:47.648Z,26.90
2023-04-16T06:26:49.336Z,32.33
2023-04-16T06:31:51.234Z,26.13
2023-04-16T06:36:52.996Z,28.80
2023-04-16T06:41:57.478Z,25.23
2023-04-16T06:46:59.214Z,26.03
2023-04-16T06:52:00.992Z,27.63
2023-04-16T06:57:02.829Z,25.33
2023-04-16T07:02:11.100Z,24.33
2023-04-16T07:07:12.953Z,23.27
2023-04-16T07:12:14.683Z,27.87
2023-04-16T07:17:16.738Z,27.30
2023-04-16T07:22:20.907Z,27.20
2023-04-16T07:27:27.175Z,30.03
2023-04-16T07:32:31.187Z,24.03
2023-04-16T07:37:32.910Z,24.07
2023-04-16T07:42:37.812Z,23.37
2023-04-16T07:47:39.654Z,23.13
2023-04-16T07:52:45.325Z,22.40
2023-04-16T07:57:49.305Z,20.23
2023-04-16T08:02:51.230Z,22.90
2023-04-16T08:07:53.046Z,20.35
2023-04-16T08:12:57.189Z,23.17
2023-04-16T08:18:01.540Z,22.35
2023-04-16T08:23:03.405Z,23.38
2023-04-16T08:28:05.503Z,25.05
2023-04-16T08:33:07.298Z,25.40
2023-04-16T08:38:11.520Z,22.98
2023-04-16T08:43:15.557Z,20.88
2023-04-16T08:48:20.027Z,20.85
2023-04-16T08:53:55.537Z,24.95
2023-04-16T08:59:03.110Z,19.45
2023-04-16T09:04:05.425Z,23.48
2023-04-16T09:09:11.845Z,18.27
2023-04-16T09:14:13.902Z,20.85
2023-04-16T09:19:20.471Z,22.58
2023-04-16T09:24:22.251Z,19.10
2023-04-16T09:29:37.775Z,18.00
2023-04-16T09:34:59.437Z,20.15
2023-04-16T09:40:05.445Z,19.20
2023-04-16T09:45:07.567Z,17.40
2023-04-16T09:50:18.623Z,19.50
2023-04-16T09:55:23.985Z,15.45
2023-04-16T10:00:34.449Z,17.42
2023-04-16T10:05:38.427Z,16.00
2023-04-16T10:10:42.677Z,18.42
2023-04-16T10:15:48.135Z,16.63
2023-04-16T10:20:51.086Z,15.32
2023-04-16T10:25:57.765Z,15.57
2023-04-16T10:30:59.974Z,14.02
2023-04-16T10:36:18.575Z,21.48
2023-04-16T10:41:21.148Z,16.02
2023-04-16T10:46:26.931Z,19.23
2023-04-16T10:51:37.301Z,14.57
2023-04-16T10:56:44.507Z,15.07
2023-04-16T11:01:54.273Z,18.75
2023-04-16T11:07:18.410Z,17.52
2023-04-16T11:12:34.720Z,15.43
2023-04-16T11:17:43.977Z,16.48
2023-04-16T11:22:54.677Z,18.50
2023-04-16T11:27:59.177Z,16.13
2023-04-16T11:33:11.303Z,16.55
2023-04-16T11:38:13.037Z,19.65
2023-04-16T11:43:19.196Z,18.85
2023-04-16T11:48:23.135Z,16.02
2023-04-16T11:53:24.969Z,23.23
2023-04-16T11:58:28.974Z,17.90
2023-04-16T12:03:48.818Z,16.33
2023-04-16T12:08:53.088Z,18.75
2023-04-16T12:14:13.183Z,16.55
2023-04-16T12:19:17.884Z,14.15
2023-04-16T12:24:27.545Z,16.83
2023-04-16T12:29:29.290Z,19.05
2023-04-16T12:34:48.933Z,13.45
2023-04-16T12:39:56.091Z,15.20
2023-04-16T12:44:57.864Z,19.05
2023-04-16T12:49:59.695Z,16.95
2023-04-16T12:55:02.564Z,19.83
2023-04-16T13:00:08.138Z,15.20
2023-04-16T13:05:17.252Z,16.92
2023-04-16T13:10:22.100Z,16.88
2023-04-16T13:15:28.900Z,14.25
2023-04-16T13:20:30.673Z,14.82
2023-04-16T13:25:34.495Z,15.98
2023-04-16T13:30:36.358Z,16.75
2023-04-16T13:35:38.121Z,14.80
2023-04-16T13:40:39.900Z,15.93
2023-04-16T13:45:41.710Z,20.00
2023-04-16T13:50:52.069Z,18.63
2023-04-16T13:56:07.140Z,20.23
2023-04-16T14:01:11.556Z,22.38
2023-04-16T14:06:18.016Z,19.48
2023-04-16T14:11:24.698Z,19.15
2023-04-16T14:16:27.486Z,20.23
2023-04-16T14:21:30.061Z,23.58
2023-04-16T14:26:31.883Z,23.90
2023-04-16T14:31:36.792Z,19.58
2023-04-16T14:36:38.568Z,18.35
2023-04-16T14:41:40.495Z,17.42
2023-04-16T14:46:42.600Z,18.35
2023-04-16T14:51:45.493Z,17.55
2023-04-16T14:56:50.384Z,18.20
2023-04-16T15:01:55.122Z,16.52
2023-04-16T15:06:59.084Z,17.58
2023-04-16T15:12:03.074Z,21.55
2023-04-16T15:17:04.882Z,17.85
2023-04-16T15:22:09.539Z,22.98
2023-04-16T15:27:14.715Z,20.17
2023-04-16T15:32:16.606Z,23.35
2023-04-16T15:37:18.542Z,32.17
2023-04-16T15:42:20.309Z,21.52
2023-04-16T15:47:22.093Z,20.38
2023-04-16T15:52:23.868Z,20.67
2023-04-16T15:57:25.649Z,25.70
2023-04-16T16:02:29.816Z,20.85
2023-04-16T16:07:34.286Z,23.90
2023-04-16T16:12:36.428Z,22.65
2023-04-16T16:17:40.898Z,22.88
2023-04-16T16:22:46.660Z,21.98
2023-04-16T16:27:48.390Z,24.50
2023-04-16T16:32:50.875Z,25.35
2023-04-16T16:37:57.285Z,24.00
2023-04-16T16:43:01.838Z,27.10
2023-04-16T16:48:07.160Z,28.00
2023-04-16T16:53:11.316Z,28.35
2023-04-16T16:58:13.295Z,25.67
2023-04-16T17:03:15.268Z,30.80
2023-04-16T17:08:17.139Z,26.65
2023-04-16T17:13:20.643Z,26.90
2023-04-16T17:18:22.372Z,30.48
2023-04-16T17:23:24.226Z,28.83
2023-04-16T17:28:28.242Z,26.08
2023-04-16T17:33:40.111Z,25.97
2023-04-16T17:38:46.218Z,28.90
2023-04-16T17:43:49.677Z,27.73
2023-04-16T17:48:53.694Z,24.05
2023-04-16T17:53:55.423Z,31.08
2023-04-16T17:58:59.332Z,28.38
2023-04-16T18:04:01.129Z,29.58
2023-04-16T18:09:05.754Z,28.45
2023-04-16T18:14:09.927Z,30.93
2023-04-16T18:19:14.046Z,30.70
2023-04-16T18:24:18.046Z,26.73
2023-04-16T18:29:24.265Z,27.90
2023-04-16T18:34:32.265Z,29.85
2023-04-16T18:39:34.086Z,33.25
2023-04-16T18:44:36.239Z,31.55
2023-04-16T18:49:37.975Z,30.57
2023-04-16T18:54:40.935Z,31.15
2023-04-16T18:59:44.972Z,34.35
2023-04-16T19:04:46.706Z,31.80
2023-04-16T19:09:48.464Z,29.27
2023-04-16T19:14:52.700Z,30.30
2023-04-16T19:19:59.164Z,30.10
2023-04-16T19:25:00.912Z,28.23
2023-04-16T19:30:03.571Z,29.33
2023-04-16T19:35:08.186Z,32.00
2023-04-16T19:40:10.267Z,32.72
2023-04-16T19:45:17.658Z,31.23
2023-04-16T19:50:20.132Z,33.33
2023-04-16T19:55:24.062Z,33.90
2023-04-16T20:00:30.815Z,31.10
2023-04-16T20:05:32.839Z,35.22
2023-04-16T20:10:37.344Z,31.33
2023-04-16T20:15:43.541Z,29.77
2023-04-16T20:20:45.294Z,30.90
2023-04-16T20:25:47.242Z,30.57
2023-04-16T20:30:51.353Z,31.05
2023-04-16T20:35:57.597Z,34.95
2023-04-16T20:41:11.020Z,36.47
2023-04-16T20:46:15.768Z,35.05
2023-04-16T20:51:17.782Z,38.00
2023-04-16T20:56:21.990Z,33.43
2023-04-16T21:01:26.334Z,35.80
2023-04-16T21:06:33.079Z,34.20
2023-04-16T21:11:37.085Z,31.30
2023-04-16T21:16:41.576Z,33.85
2023-04-16T21:21:43.453Z,34.58
2023-04-16T21:26:47.276Z,31.23
2023-04-16T21:31:49.089Z,37.10
2023-04-16T21:36:55.474Z,39.95
2023-04-16T21:41:59.545Z,34.47
2023-04-16T21:47:03.568Z,32.45
2023-04-16T21:52:18.117Z,35.30
2023-04-16T21:57:22.090Z,42.55
2023-04-16T22:02:24.206Z,37.87
2023-04-16T22:07:28.959Z,42.40
2023-04-16T22:12:39.827Z,40.00
2023-04-16T22:17:45.546Z,36.63
2023-04-16T22:22:49.692Z,38.42
2023-04-16T22:27:52.578Z,35.57
2023-04-16T22:32:54.362Z,34.57
2023-04-16T22:37:59.061Z,36.33
2023-04-16T22:43:02.797Z,33.67
2023-04-16T22:48:07.068Z,31.90
2023-04-16T22:53:16.074Z,30.80
2023-04-16T22:58:17.895Z,33.77
2023-04-16T23:03:24.543Z,37.67
2023-04-16T23:08:31.066Z,34.87
2023-04-16T23:13:35.646Z,38.23
2023-04-16T23:18:37.304Z,34.97
2023-04-16T23:23:38.974Z,37.20
2023-04-16T23:28:42.877Z,37.67
2023-04-16T23:33:46.879Z,42.13
2023-04-16T23:38:51.068Z,36.90
2023-04-16T23:43:52.901Z,38.83
2023-04-16T23:48:55.431Z,49.57
2023-04-16T23:53:57.262Z,41.67
2023-04-16T23:59:03.735Z,41.90
